DHK07X EGNX-EBBR
Flight info
| Callsign | DHK07X |
|---|---|
| Flight time | N/A |
| Altitude | 29000 |
| Route | SAPCO UY53 DTY UM605 BENSU Q70 KOK |
| Aircraft | B77L/H-SDE1E2E3FGHIJ2J3J4J5M1RWXY/LB1D1 |
Departure
| Time | 2026-05-06 16:19 |
|---|---|
| Airport | East Midlands Airport (EGNX) |
Arrival
| Time | N/A |
|---|---|
| Airport | Brussels Airport (EBBR) |
| Time | Latitude | Longitude | Altitude | Speed | Heading |
|---|---|---|---|---|---|
| 2026-05-06 15:49 | 52.82746 | -1.35114 | 305 ft | 0 kts | 178° |
| 2026-05-06 16:10 | 52.82752 | -1.35114 | 305 ft | 4 kts | 178° |
| 2026-05-06 16:10 | 52.82779 | -1.35116 | 305 ft | 4 kts | 178° |
| 2026-05-06 16:10 | 52.82803 | -1.35117 | 305 ft | 4 kts | 192° |
| 2026-05-06 16:11 | 52.82821 | -1.35098 | 306 ft | 4 kts | 256° |
| 2026-05-06 16:11 | 52.82823 | -1.35056 | 307 ft | 3 kts | 269° |
| 2026-05-06 16:11 | 52.82823 | -1.35044 | 306 ft | 1 kts | 268° |
| 2026-05-06 16:14 | 52.82823 | -1.35046 | 305 ft | 1 kts | 268° |
| 2026-05-06 16:14 | 52.82823 | -1.35079 | 305 ft | 5 kts | 268° |
| 2026-05-06 16:14 | 52.82821 | -1.35159 | 308 ft | 9 kts | 268° |
| 2026-05-06 16:15 | 52.82849 | -1.35260 | 308 ft | 11 kts | 334° |
| 2026-05-06 16:15 | 52.82892 | -1.35184 | 309 ft | 11 kts | 82° |
| 2026-05-06 16:15 | 52.82897 | -1.35058 | 308 ft | 11 kts | 91° |
| 2026-05-06 16:15 | 52.82922 | -1.34946 | 313 ft | 10 kts | 35° |
| 2026-05-06 16:16 | 52.82924 | -1.34944 | 310 ft | 0 kts | 31° |
| 2026-05-06 16:16 | 52.82928 | -1.34942 | 311 ft | 3 kts | 22° |
| 2026-05-06 16:16 | 52.82942 | -1.34939 | 310 ft | 0 kts | 7° |
| 2026-05-06 16:17 | 52.82966 | -1.34937 | 311 ft | 8 kts | 1° |
| 2026-05-06 16:17 | 52.83035 | -1.34930 | 312 ft | 10 kts | 14° |
| 2026-05-06 16:17 | 52.83074 | -1.34843 | 310 ft | 11 kts | 91° |
| 2026-05-06 16:18 | 52.83067 | -1.34717 | 307 ft | 11 kts | 91° |
| 2026-05-06 16:18 | 52.83067 | -1.34626 | 307 ft | 3 kts | 89° |
| 2026-05-06 16:18 | 52.83068 | -1.34591 | 306 ft | 4 kts | 89° |
| 2026-05-06 16:18 | 52.83069 | -1.34497 | 305 ft | 24 kts | 89° |
| 2026-05-06 16:19 | 52.83088 | -1.33601 | 314 ft | 132 kts | 87° |
| 2026-05-06 16:19 | 52.83122 | -1.31534 | 427 ft | 213 kts | 88° |
| 2026-05-06 16:19 | 52.83103 | -1.29003 | 1593 ft | 216 kts | 92° |
| 2026-05-06 16:19 | 52.82970 | -1.26671 | 2969 ft | 198 kts | 94° |
| 2026-05-06 16:20 | 52.82739 | -1.24336 | 3386 ft | 219 kts | 106° |
| 2026-05-06 16:20 | 52.81969 | -1.22082 | 3916 ft | 232 kts | 127° |
| 2026-05-06 16:20 | 52.80873 | -1.20063 | 4575 ft | 241 kts | 131° |
| 2026-05-06 16:20 | 52.79679 | -1.18015 | 5225 ft | 255 kts | 133° |
| 2026-05-06 16:21 | 52.78409 | -1.15870 | 5904 ft | 265 kts | 137° |
| 2026-05-06 16:21 | 52.76749 | -1.14498 | 6594 ft | 276 kts | 173° |
| 2026-05-06 16:21 | 52.74870 | -1.14947 | 7475 ft | 277 kts | 207° |
| 2026-05-06 16:21 | 52.73384 | -1.16925 | 8344 ft | 274 kts | 227° |
| 2026-05-06 16:22 | 52.72014 | -1.19189 | 8926 ft | 283 kts | 223° |
| 2026-05-06 16:22 | 52.70519 | -1.21340 | 9025 ft | 288 kts | 220° |
| 2026-05-06 16:22 | 52.68959 | -1.23432 | 9230 ft | 289 kts | 219° |
| 2026-05-06 16:22 | 52.67385 | -1.25502 | 10148 ft | 289 kts | 219° |
| 2026-05-06 16:23 | 52.65783 | -1.27594 | 10853 ft | 303 kts | 220° |
| 2026-05-06 16:23 | 52.64057 | -1.29843 | 11085 ft | 331 kts | 220° |
| 2026-05-06 16:23 | 52.62171 | -1.32292 | 11312 ft | 359 kts | 220° |
| 2026-05-06 16:23 | 52.60163 | -1.34879 | 11924 ft | 370 kts | 218° |
| 2026-05-06 16:24 | 52.57840 | -1.36810 | 12490 ft | 385 kts | 195° |
| 2026-05-06 16:24 | 52.55151 | -1.36898 | 13415 ft | 393 kts | 169° |
| 2026-05-06 16:24 | 52.52592 | -1.35354 | 14314 ft | 395 kts | 156° |
| 2026-05-06 16:24 | 52.50067 | -1.33447 | 15073 ft | 403 kts | 156° |
| 2026-05-06 16:25 | 52.47503 | -1.31525 | 15904 ft | 408 kts | 157° |
| 2026-05-06 16:25 | 52.44895 | -1.29628 | 16782 ft | 412 kts | 158° |
| 2026-05-06 16:25 | 52.42256 | -1.27767 | 17608 ft | 416 kts | 158° |
| 2026-05-06 16:25 | 52.39571 | -1.25918 | 18398 ft | 420 kts | 159° |
| 2026-05-06 16:26 | 52.36858 | -1.24076 | 19166 ft | 424 kts | 159° |
| 2026-05-06 16:26 | 52.34153 | -1.22250 | 19898 ft | 429 kts | 159° |
| 2026-05-06 16:26 | 52.31349 | -1.20363 | 20633 ft | 433 kts | 159° |
| 2026-05-06 16:26 | 52.28584 | -1.18503 | 21323 ft | 437 kts | 159° |
| 2026-05-06 16:27 | 52.25761 | -1.16608 | 22002 ft | 441 kts | 159° |
| 2026-05-06 16:27 | 52.22916 | -1.14697 | 22676 ft | 445 kts | 159° |
| 2026-05-06 16:27 | 52.19961 | -1.12722 | 23331 ft | 449 kts | 160° |
| 2026-05-06 16:27 | 52.17085 | -1.11094 | 23932 ft | 451 kts | 166° |
| 2026-05-06 16:28 | 52.14023 | -1.09959 | 24542 ft | 453 kts | 171° |
| 2026-05-06 16:28 | 52.10905 | -1.09017 | 25154 ft | 457 kts | 171° |
| 2026-05-06 16:28 | 52.07772 | -1.08049 | 25732 ft | 460 kts | 171° |
| 2026-05-06 16:28 | 52.04622 | -1.07043 | 26290 ft | 464 kts | 171° |
| 2026-05-06 16:29 | 52.01446 | -1.06009 | 26842 ft | 467 kts | 171° |
| 2026-05-06 16:29 | 51.98249 | -1.04963 | 27368 ft | 470 kts | 170° |
| 2026-05-06 16:29 | 51.95033 | -1.03897 | 27850 ft | 474 kts | 170° |
| 2026-05-06 16:29 | 51.91790 | -1.02817 | 28329 ft | 478 kts | 170° |
| 2026-05-06 16:30 | 51.88523 | -1.01731 | 28808 ft | 480 kts | 170° |
| 2026-05-06 16:30 | 51.86347 | -1.01011 | 29029 ft | 483 kts | 170° |
| 2026-05-06 16:30 | 51.78639 | -0.98511 | 28996 ft | 482 kts | 171° |
| 2026-05-06 16:31 | 51.72059 | -0.96415 | 28989 ft | 482 kts | 171° |
| 2026-05-06 16:31 | 51.65478 | -0.94313 | 28989 ft | 482 kts | 171° |
| 2026-05-06 16:32 | 51.59273 | -0.90560 | 28995 ft | 487 kts | 144° |
| 2026-05-06 16:32 | 51.56855 | -0.86722 | 29001 ft | 491 kts | 129° |
| 2026-05-06 16:32 | 51.55130 | -0.81979 | 28981 ft | 493 kts | 113° |
| 2026-05-06 16:33 | 51.52658 | -0.71705 | 29001 ft | 495 kts | 112° |
| 2026-05-06 16:34 | 51.48781 | -0.56346 | 29000 ft | 498 kts | 113° |
| 2026-05-06 16:34 | 51.46104 | -0.46025 | 28993 ft | 498 kts | 113° |
| 2026-05-06 16:35 | 51.43439 | -0.35807 | 28993 ft | 496 kts | 113° |
| 2026-05-06 16:35 | 51.40795 | -0.25696 | 28994 ft | 495 kts | 113° |
| 2026-05-06 16:36 | 51.38134 | -0.15556 | 28990 ft | 493 kts | 113° |
| 2026-05-06 16:36 | 51.35453 | -0.05384 | 28990 ft | 493 kts | 114° |
| 2026-05-06 16:37 | 51.33331 | 0.05023 | 28991 ft | 493 kts | 103° |
| 2026-05-06 16:37 | 51.32421 | 0.15884 | 28994 ft | 493 kts | 94° |
| 2026-05-06 16:38 | 51.31980 | 0.26739 | 28993 ft | 492 kts | 94° |
| 2026-05-06 16:38 | 51.31488 | 0.37652 | 28988 ft | 492 kts | 95° |
| 2026-05-06 16:39 | 51.30955 | 0.48550 | 28994 ft | 491 kts | 95° |
| 2026-05-06 16:39 | 51.30414 | 0.59430 | 28993 ft | 491 kts | 95° |
| 2026-05-06 16:40 | 51.29978 | 0.70318 | 28987 ft | 491 kts | 93° |
| 2026-05-06 16:40 | 51.29610 | 0.81203 | 28984 ft | 491 kts | 94° |
| 2026-05-06 16:41 | 51.29211 | 0.92104 | 28988 ft | 491 kts | 94° |
| 2026-05-06 16:41 | 51.28793 | 1.02983 | 28984 ft | 491 kts | 94° |
| 2026-05-06 16:42 | 51.28358 | 1.13877 | 28978 ft | 491 kts | 94° |
| 2026-05-06 16:42 | 51.27911 | 1.24764 | 28978 ft | 491 kts | 94° |